Time;durP1;ratioP1;P1;durP2;ratioP2;P2;SDS_P1;SDS_P2;PMS_P1;PMS_P2;Temp;Humidity;BMP_temperature;BMP_pressure;BME280_temperature;BME280_humidity;BME280_pressure;Samples;Min_cycle;Max_cycle;Signal;HPM_P1;HPM_P2
2022/06/25 00:01:15;;;;;;;2.30;1.20;;;15.80;59.20;;;;;;5060110;28;20215;-76
2022/06/25 00:03:43;;;;;;;2.63;1.10;;;15.80;59.00;;;;;;5071009;28;20172;-75
2022/06/25 00:06:11;;;;;;;1.77;1.33;;;16.00;58.40;;;;;;5066329;28;20199;-77
2022/06/25 00:08:39;;;;;;;2.07;1.40;;;16.00;58.50;;;;;;5067917;28;20242;-76
2022/06/25 00:11:07;;;;;;;5.43;1.70;;;16.10;58.30;;;;;;5062201;28;20205;-75
2022/06/25 00:13:35;;;;;;;2.13;1.33;;;16.10;58.40;;;;;;5072520;28;20567;-76
2022/06/25 00:16:02;;;;;;;1.33;1.00;;;16.20;57.90;;;;;;5069674;28;20183;-77
2022/06/25 00:18:30;;;;;;;2.67;1.50;;;16.30;58.00;;;;;;5069149;28;20182;-77
2022/06/25 00:20:57;;;;;;;6.03;1.33;;;16.40;58.10;;;;;;5072370;28;20179;-75
2022/06/25 00:23:25;;;;;;;5.97;1.23;;;16.50;57.50;;;;;;5074355;28;20176;-73
2022/06/25 00:25:52;;;;;;;5.07;1.70;;;16.50;57.00;;;;;;5070909;28;20260;-75
2022/06/25 00:28:19;;;;;;;3.17;1.73;;;16.70;57.50;;;;;;5065442;28;20260;-74
2022/06/25 00:30:47;;;;;;;4.30;1.40;;;16.70;57.50;;;;;;5057575;28;20203;-75
2022/06/25 00:33:14;;;;;;;4.37;1.30;;;16.80;56.40;;;;;;5055398;28;20626;-74
2022/06/25 00:35:42;;;;;;;2.37;1.30;;;16.80;56.30;;;;;;5071621;28;20582;-75
2022/06/25 00:38:09;;;;;;;5.43;1.40;;;17.00;56.00;;;;;;5069769;28;20181;-74
2022/06/25 00:40:37;;;;;;;3.10;1.37;;;17.00;55.20;;;;;;5068192;28;20635;-74
2022/06/25 00:43:04;;;;;;;3.67;1.40;;;17.10;54.90;;;;;;5085280;28;20211;-74
2022/06/25 00:45:32;;;;;;;3.67;1.40;;;17.10;54.90;;;;;;5079480;28;20197;-78
2022/06/25 00:47:59;;;;;;;2.00;1.27;;;17.20;54.90;;;;;;5067397;28;20186;-75
2022/06/25 00:50:27;;;;;;;4.83;1.53;;;17.30;54.30;;;;;;5054332;28;20213;-75
2022/06/25 00:52:58;;;;;;;4.27;1.30;;;17.40;54.10;;;;;;5074600;28;20658;-74
2022/06/25 00:55:30;;;;;;;3.40;1.70;;;17.50;54.30;;;;;;5076748;28;20282;-74
2022/06/25 00:58:01;;;;;;;2.57;1.43;;;17.60;53.80;;;;;;5070210;28;20622;-75
2022/06/25 01:00:30;;;;;;;6.63;1.20;;;17.60;52.90;;;;;;5071689;28;20197;-76
2022/06/25 01:02:57;;;;;;;4.37;1.20;;;17.70;53.00;;;;;;5072362;28;20169;-73
2022/06/25 01:05:24;;;;;;;1.73;1.30;;;17.80;52.70;;;;;;5071611;28;20229;-76
2022/06/25 01:07:52;;;;;;;1.60;1.10;;;17.90;52.60;;;;;;5064417;28;20185;-74
2022/06/25 01:10:19;;;;;;;5.00;1.50;;;18.00;52.40;;;;;;5059187;28;20563;-79
2022/06/25 01:12:47;;;;;;;4.27;1.43;;;18.10;51.60;;;;;;5059414;28;20552;-74
2022/06/25 01:15:19;;;;;;;2.13;1.10;;;18.20;51.90;;;;;;5076080;28;20286;-76
2022/06/25 01:17:52;;;;;;;3.73;1.47;;;18.30;51.20;;;;;;5090220;28;20261;-75
2022/06/25 01:20:23;;;;;;;2.40;1.10;;;18.40;51.20;;;;;;5079157;28;20190;-75
2022/06/25 01:22:51;;;;;;;2.47;1.20;;;18.60;50.80;;;;;;5070010;28;20182;-76
2022/06/25 01:25:18;;;;;;;1.20;1.10;;;18.60;50.90;;;;;;5083297;28;20468;-75
2022/06/25 01:27:47;;;;;;;4.83;1.20;;;18.80;50.50;;;;;;5064755;28;20894;-76
2022/06/25 01:30:15;;;;;;;2.80;1.20;;;18.70;50.40;;;;;;5079634;28;20282;-75
2022/06/25 01:32:43;;;;;;;4.13;1.10;;;18.80;50.80;;;;;;5070274;28;20260;-75
2022/06/25 01:35:11;;;;;;;1.60;1.17;;;18.80;49.70;;;;;;5063540;28;20212;-77
2022/06/25 01:37:39;;;;;;;1.77;1.17;;;19.00;49.60;;;;;;5052626;28;20195;-76
2022/06/25 01:40:07;;;;;;;2.30;1.27;;;19.30;49.30;;;;;;5062036;28;20176;-76
2022/06/25 01:45:19;;;;;;;5.17;1.40;;;19.50;48.20;;;;;;5069533;28;20642;-77
2022/06/25 01:47:47;;;;;;;1.40;1.00;;;19.40;48.20;;;;;;5063357;28;20240;-75
2022/06/25 01:50:17;;;;;;;4.07;1.97;;;19.40;48.70;;;;;;5059273;28;20269;-77
2022/06/25 01:52:46;;;;;;;3.00;1.47;;;19.70;48.60;;;;;;5054563;28;20207;-85
2022/06/25 01:55:15;;;;;;;1.77;1.10;;;19.80;47.40;;;;;;5059113;28;20288;-78
2022/06/25 01:57:42;;;;;;;3.67;1.20;;;19.70;47.80;;;;;;5061009;28;20187;-75
2022/06/25 02:00:20;;;;;;;2.13;1.20;;;19.80;47.80;;;;;;5064375;28;20203;-75
2022/06/25 02:02:47;;;;;;;2.70;1.30;;;19.80;47.30;;;;;;5063215;28;20195;-75
2022/06/25 02:05:17;;;;;;;4.20;1.20;;;19.90;47.60;;;;;;5063435;28;20645;-78
2022/06/25 02:07:45;;;;;;;3.80;1.40;;;19.90;47.50;;;;;;5072963;28;20176;-76
2022/06/25 02:10:12;;;;;;;1.60;1.20;;;19.90;47.40;;;;;;5064289;28;20237;-75
2022/06/25 02:12:40;;;;;;;4.73;1.27;;;19.80;47.40;;;;;;5059706;28;20547;-76
2022/06/25 02:15:08;;;;;;;2.10;1.13;;;19.90;47.80;;;;;;5052795;28;20212;-77
2022/06/25 02:17:35;;;;;;;2.90;1.10;;;19.90;47.30;;;;;;5052352;28;20522;-76
2022/06/25 02:20:03;;;;;;;2.80;1.17;;;20.00;47.30;;;;;;5057503;28;20180;-77
2022/06/25 02:22:30;;;;;;;3.37;1.47;;;19.80;47.40;;;;;;5060069;28;20192;-79
2022/06/25 02:24:57;;;;;;;5.90;1.60;;;19.90;48.00;;;;;;5072839;28;20191;-80
2022/06/25 02:27:25;;;;;;;5.97;1.50;;;20.30;47.20;;;;;;5061658;28;20589;-79
2022/06/25 02:29:53;;;;;;;6.27;1.47;;;20.30;47.00;;;;;;5071485;28;20191;-80
2022/06/25 02:32:20;;;;;;;4.10;1.20;;;20.40;46.40;;;;;;5052871;28;20182;-77
2022/06/25 02:34:48;;;;;;;5.30;1.43;;;20.60;46.10;;;;;;5060632;28;20218;-77
2022/06/25 02:37:16;;;;;;;3.77;1.50;;;20.40;46.60;;;;;;5062617;28;20551;-76
2022/06/25 02:39:43;;;;;;;2.10;1.20;;;20.60;47.10;;;;;;5063072;28;20209;-76
2022/06/25 02:42:11;;;;;;;3.80;1.40;;;20.50;46.10;;;;;;5064137;28;20206;-79
2022/06/25 02:44:38;;;;;;;2.73;1.40;;;20.30;46.80;;;;;;5061019;28;20188;-76
2022/06/25 02:47:05;;;;;;;2.83;1.43;;;20.10;47.40;;;;;;5064471;28;20659;-80
2022/06/25 02:49:33;;;;;;;1.57;1.10;;;20.20;46.80;;;;;;5052652;28;20610;-78
2022/06/25 02:52:00;;;;;;;2.37;1.20;;;20.00;47.00;;;;;;5062992;28;20175;-79
2022/06/25 02:54:28;;;;;;;3.70;1.10;;;20.30;46.80;;;;;;5064745;28;20253;-76
2022/06/25 02:59:44;;;;;;;2.93;1.37;;;20.80;45.30;;;;;;5064778;28;20237;-75
2022/06/25 03:02:11;;;;;;;3.73;1.40;;;20.70;45.30;;;;;;5052695;28;20215;-75
2022/06/25 03:04:39;;;;;;;2.53;1.47;;;20.60;45.70;;;;;;5052563;28;20188;-76
2022/06/25 03:07:06;;;;;;;3.40;1.10;;;20.60;45.40;;;;;;5052048;28;20245;-74
2022/06/25 03:09:33;;;;;;;0.87;0.87;;;20.50;45.70;;;;;;5060414;28;20183;-79
2022/06/25 03:12:01;;;;;;;3.80;1.00;;;20.70;45.40;;;;;;5059636;28;20597;-74
2022/06/25 03:14:28;;;;;;;0.77;0.73;;;20.70;43.80;;;;;;5055976;28;20216;-74
2022/06/25 03:16:56;;;;;;;1.20;0.80;;;20.60;43.50;;;;;;5053762;28;20168;-79
2022/06/25 03:19:23;;;;;;;2.70;1.10;;;20.50;43.40;;;;;;5060112;28;20554;-77
2022/06/25 03:21:51;;;;;;;1.97;0.80;;;20.50;43.40;;;;;;5062448;28;20175;-74
2022/06/25 03:24:18;;;;;;;1.93;1.00;;;20.70;43.10;;;;;;5063043;28;20253;-75
2022/06/25 03:26:46;;;;;;;4.53;0.80;;;20.80;43.70;;;;;;5061805;28;20223;-77
2022/06/25 03:29:13;;;;;;;0.93;0.70;;;20.80;43.50;;;;;;5065528;28;20240;-77
2022/06/25 03:31:40;;;;;;;2.43;1.40;;;20.70;42.50;;;;;;5061040;28;20205;-75
2022/06/25 03:34:08;;;;;;;1.23;1.00;;;21.00;43.20;;;;;;5056471;28;20229;-75
2022/06/25 03:36:38;;;;;;;1.83;0.97;;;21.20;42.00;;;;;;5061524;28;20192;-77
2022/06/25 03:39:06;;;;;;;1.80;1.10;;;21.30;41.70;;;;;;5052702;28;20179;-77
2022/06/25 03:41:35;;;;;;;1.70;0.80;;;21.50;42.00;;;;;;5052308;28;20234;-76
2022/06/25 03:44:08;;;;;;;1.27;0.93;;;21.70;42.00;;;;;;5052784;28;20183;-74
2022/06/25 03:46:36;;;;;;;2.27;0.80;;;21.50;41.90;;;;;;5053276;28;20287;-73
2022/06/25 03:49:04;;;;;;;2.53;1.00;;;21.20;43.20;;;;;;5071671;28;20183;-76
2022/06/25 03:51:32;;;;;;;2.80;0.90;;;20.70;44.00;;;;;;5060314;28;20630;-76
2022/06/25 03:54:00;;;;;;;2.97;1.00;;;20.60;44.30;;;;;;5069975;28;20204;-78
2022/06/25 03:56:28;;;;;;;3.20;1.00;;;21.00;43.40;;;;;;5057193;28;20180;-79
2022/06/25 03:58:55;;;;;;;2.20;0.87;;;21.40;42.80;;;;;;5068658;28;20262;-75
2022/06/25 04:01:23;;;;;;;1.13;0.90;;;20.80;43.80;;;;;;5061190;28;20230;-79
2022/06/25 04:03:51;;;;;;;2.33;0.90;;;21.00;43.50;;;;;;5058415;28;20630;-77
2022/06/25 04:06:19;;;;;;;2.30;0.90;;;21.60;42.40;;;;;;5054824;28;20270;-79
2022/06/25 04:08:46;;;;;;;3.43;1.03;;;21.80;40.80;;;;;;5068488;28;20612;-78
2022/06/25 04:11:14;;;;;;;2.10;0.70;;;22.00;40.20;;;;;;5072004;28;20225;-77
2022/06/25 04:13:41;;;;;;;3.90;0.90;;;22.20;39.50;;;;;;5072582;28;20574;-76
2022/06/25 04:16:09;;;;;;;3.17;0.83;;;22.30;39.80;;;;;;5069926;28;20191;-78
2022/06/25 04:18:36;;;;;;;1.67;0.80;;;22.30;39.50;;;;;;5074343;28;20167;-77
2022/06/25 04:21:04;;;;;;;1.57;0.80;;;22.70;39.30;;;;;;5055519;28;20184;-79
2022/06/25 04:23:31;;;;;;;1.37;0.90;;;22.60;39.10;;;;;;5059938;28;20596;-77
2022/06/25 04:25:59;;;;;;;3.53;1.10;;;22.60;38.90;;;;;;5063514;28;20234;-79
2022/06/25 04:31:11;;;;;;;0.70;0.70;;;22.30;39.30;;;;;;5054530;28;20588;-82
2022/06/25 04:33:39;;;;;;;2.63;1.03;;;22.40;38.70;;;;;;5059509;28;20256;-76
2022/06/25 04:36:06;;;;;;;2.43;0.83;;;22.30;39.10;;;;;;5062620;28;20172;-77
2022/06/25 04:38:34;;;;;;;1.17;0.90;;;22.50;38.70;;;;;;5054269;28;20183;-78
2022/06/25 04:41:01;;;;;;;2.50;0.80;;;22.30;38.80;;;;;;5054654;28;20172;-79
2022/06/25 04:43:29;;;;;;;1.23;0.83;;;23.00;38.10;;;;;;5068008;28;20224;-76
2022/06/25 04:45:56;;;;;;;0.83;0.70;;;22.80;38.00;;;;;;5073215;28;20187;-76
2022/06/25 04:48:23;;;;;;;1.37;0.60;;;22.80;38.00;;;;;;5058767;28;20190;-79
2022/06/25 04:50:51;;;;;;;1.60;0.73;;;22.90;38.20;;;;;;5055551;28;20185;-75
2022/06/25 04:53:18;;;;;;;0.93;0.70;;;22.50;38.90;;;;;;5067499;28;20188;-77
2022/06/25 04:55:46;;;;;;;1.00;0.80;;;22.60;39.00;;;;;;5064472;28;20184;-79
2022/06/25 04:58:13;;;;;;;1.63;0.73;;;22.90;38.40;;;;;;5073092;28;20179;-78
2022/06/25 05:00:41;;;;;;;2.60;1.10;;;23.30;38.10;;;;;;5072543;28;20202;-76
2022/06/25 05:03:09;;;;;;;1.67;0.80;;;23.80;37.60;;;;;;5066288;28;20191;-76
2022/06/25 05:05:37;;;;;;;1.47;0.80;;;23.30;38.70;;;;;;5068723;28;20195;-76
2022/06/25 05:08:05;;;;;;;1.33;1.07;;;23.60;38.20;;;;;;5064464;28;20179;-77
2022/06/25 05:10:32;;;;;;;2.27;1.03;;;23.40;38.40;;;;;;5060742;28;20558;-75
2022/06/25 05:13:15;;;;;;;1.00;0.70;;;23.90;37.90;;;;;;5064001;28;20629;-76
2022/06/25 05:15:43;;;;;;;0.80;0.80;;;23.60;38.00;;;;;;5062113;28;20191;-76
2022/06/25 05:18:12;;;;;;;1.50;0.80;;;23.50;38.40;;;;;;5061393;28;20222;-76
2022/06/25 05:20:44;;;;;;;1.73;0.90;;;24.00;37.60;;;;;;5065169;28;20180;-78
2022/06/25 05:23:12;;;;;;;1.60;0.80;;;23.50;37.50;;;;;;5059393;28;20195;-76
2022/06/25 05:25:44;;;;;;;1.83;0.90;;;23.10;38.50;;;;;;5063654;28;20180;-77
2022/06/25 05:28:11;;;;;;;1.00;0.70;;;23.20;38.60;;;;;;5071692;28;20187;-81
2022/06/25 05:30:40;;;;;;;0.90;0.80;;;23.00;38.90;;;;;;5067277;28;20252;-77
2022/06/25 05:33:07;;;;;;;1.80;0.90;;;23.10;38.50;;;;;;5073008;28;20268;-76
2022/06/25 05:35:35;;;;;;;2.70;0.90;;;23.30;38.90;;;;;;5066127;28;20549;-76
2022/06/25 05:38:02;;;;;;;1.40;0.90;;;22.40;40.20;;;;;;5066552;28;20183;-75
2022/06/25 05:40:30;;;;;;;3.53;0.77;;;22.30;39.90;;;;;;5063694;28;20188;-75
2022/06/25 05:42:57;;;;;;;1.20;0.80;;;21.70;41.00;;;;;;5064882;28;20207;-76
2022/06/25 05:45:24;;;;;;;1.57;0.70;;;21.60;41.70;;;;;;5056390;28;20172;-75
2022/06/25 05:47:52;;;;;;;1.07;0.70;;;22.10;40.40;;;;;;5062901;28;20249;-76
2022/06/25 05:50:19;;;;;;;2.73;1.10;;;22.60;40.10;;;;;;5064042;28;20207;-76
2022/06/25 05:52:47;;;;;;;2.70;1.10;;;23.00;39.10;;;;;;5059074;28;20263;-75
2022/06/25 05:55:14;;;;;;;1.60;0.80;;;22.40;39.70;;;;;;5066979;28;20272;-76
2022/06/25 05:57:42;;;;;;;0.67;0.50;;;21.30;41.60;;;;;;5064324;28;20540;-76
2022/06/25 06:00:09;;;;;;;2.00;0.80;;;20.60;43.70;;;;;;5053232;28;20191;-76
2022/06/25 06:02:37;;;;;;;2.13;0.80;;;20.10;44.50;;;;;;5061570;28;20597;-76
2022/06/25 06:05:05;;;;;;;1.17;0.50;;;19.70;44.90;;;;;;5055338;28;20214;-76
2022/06/25 06:07:32;;;;;;;1.03;0.70;;;19.50;45.30;;;;;;5053106;28;20507;-75
2022/06/25 06:10:00;;;;;;;1.43;0.70;;;19.50;45.70;;;;;;5065155;28;20181;-75
2022/06/25 06:12:27;;;;;;;2.70;0.70;;;19.80;45.80;;;;;;5054174;28;20191;-75
2022/06/25 06:14:55;;;;;;;3.87;0.90;;;19.80;45.20;;;;;;5056090;28;20239;-74
2022/06/25 06:17:22;;;;;;;3.67;0.67;;;19.80;45.70;;;;;;5053069;28;20215;-75
2022/06/25 06:19:50;;;;;;;1.00;0.70;;;19.70;45.80;;;;;;5056498;28;20179;-77
2022/06/25 06:22:17;;;;;;;4.53;1.00;;;19.40;46.30;;;;;;5067791;28;20179;-74
2022/06/25 06:24:44;;;;;;;1.87;0.90;;;19.20;47.20;;;;;;5055824;28;20175;-74
2022/06/25 06:27:12;;;;;;;1.30;0.80;;;19.10;47.50;;;;;;5070463;28;20258;-76
2022/06/25 06:29:39;;;;;;;2.60;1.10;;;18.90;48.30;;;;;;5068483;28;20175;-75
2022/06/25 06:32:07;;;;;;;3.63;1.17;;;18.80;47.50;;;;;;5065878;28;20183;-75
2022/06/25 06:34:35;;;;;;;1.67;1.17;;;18.70;47.60;;;;;;5062074;28;20199;-73
2022/06/25 06:37:04;;;;;;;4.13;1.00;;;18.60;48.00;;;;;;5057083;28;20209;-74
2022/06/25 06:39:31;;;;;;;1.20;1.00;;;18.50;47.90;;;;;;5061157;28;20191;-73
2022/06/25 06:41:58;;;;;;;2.07;1.07;;;18.40;48.20;;;;;;5051103;28;20183;-74
2022/06/25 06:44:26;;;;;;;1.50;1.20;;;18.30;48.70;;;;;;5060887;28;20626;-74
2022/06/25 06:46:53;;;;;;;1.90;1.20;;;18.20;48.40;;;;;;5052418;28;20180;-74
2022/06/25 06:49:21;;;;;;;2.40;1.40;;;18.10;48.80;;;;;;5051025;28;20180;-74
2022/06/25 06:51:48;;;;;;;3.60;1.50;;;18.00;49.10;;;;;;5066621;28;20186;-75
2022/06/25 06:54:15;;;;;;;2.93;1.90;;;17.90;49.50;;;;;;5052263;28;20252;-75
2022/06/25 06:56:43;;;;;;;3.87;2.07;;;17.80;49.90;;;;;;5062374;28;20179;-74
2022/06/25 06:59:11;;;;;;;1.63;1.40;;;17.70;50.50;;;;;;5052770;28;20537;-74
2022/06/25 07:01:38;;;;;;;1.37;1.10;;;17.60;50.40;;;;;;5051831;28;20277;-76
2022/06/25 07:04:06;;;;;;;1.97;1.30;;;17.50;50.30;;;;;;5061920;28;20207;-75
2022/06/25 07:06:33;;;;;;;4.03;1.73;;;17.40;51.20;;;;;;5052158;28;20626;-74
2022/06/25 07:09:00;;;;;;;2.47;1.77;;;17.30;51.50;;;;;;5063502;28;20198;-75
2022/06/25 07:11:31;;;;;;;3.40;2.23;;;17.20;51.30;;;;;;5052558;28;20554;-74
2022/06/25 07:14:00;;;;;;;2.80;1.90;;;17.20;51.50;;;;;;5053603;28;20620;-74
2022/06/25 07:16:29;;;;;;;4.07;2.20;;;17.20;52.00;;;;;;5064646;28;20172;-74
2022/06/25 07:18:58;;;;;;;3.43;2.17;;;17.00;52.40;;;;;;5057355;28;20198;-74
2022/06/25 07:21:26;;;;;;;1.90;1.50;;;16.90;53.10;;;;;;5060913;28;20633;-75
2022/06/25 07:23:54;;;;;;;3.27;1.70;;;16.80;53.40;;;;;;5056512;28;20187;-74
2022/06/25 07:26:22;;;;;;;2.70;1.70;;;16.80;53.80;;;;;;5073860;28;20230;-74
2022/06/25 07:28:51;;;;;;;3.77;2.07;;;16.70;54.80;;;;;;5074506;28;20527;-75
2022/06/25 07:31:19;;;;;;;3.50;2.53;;;16.50;54.60;;;;;;5056318;28;20225;-75
2022/06/25 07:33:46;;;;;;;5.33;2.80;;;16.50;55.10;;;;;;5066460;28;20207;-75
2022/06/25 07:36:14;;;;;;;6.40;3.90;;;16.30;55.20;;;;;;5060682;28;20198;-76
2022/06/25 07:38:42;;;;;;;9.93;7.33;;;16.30;55.80;;;;;;5071972;28;20256;-74
2022/06/25 07:41:09;;;;;;;19.17;16.17;;;16.20;56.00;;;;;;5064865;28;20183;-74
2022/06/25 07:43:37;;;;;;;22.33;18.43;;;16.10;56.90;;;;;;5057523;28;20186;-74
2022/06/25 07:46:04;;;;;;;14.20;10.30;;;16.00;57.50;;;;;;5066667;28;20179;-74
2022/06/25 07:48:32;;;;;;;16.73;12.43;;;15.90;57.50;;;;;;5055353;28;20185;-74
2022/06/25 07:53:45;;;;;;;26.47;18.00;;;15.90;57.90;;;;;;5056858;28;20208;-74
2022/06/25 07:56:12;;;;;;;32.63;24.70;;;15.80;57.70;;;;;;5069297;28;20194;-74
2022/06/25 07:58:40;;;;;;;20.00;13.60;;;15.80;58.10;;;;;;5070524;28;20252;-74
2022/06/25 08:01:07;;;;;;;17.37;9.07;;;15.70;59.20;;;;;;5063901;28;20176;-74
2022/06/25 08:03:35;;;;;;;13.63;8.20;;;15.70;59.90;;;;;;5058277;28;20188;-74
2022/06/25 08:06:02;;;;;;;13.13;7.57;;;15.70;60.70;;;;;;5066875;28;20173;-73
2022/06/25 08:08:30;;;;;;;37.23;18.00;;;15.60;60.80;;;;;;5075352;28;20180;-73
2022/06/25 08:10:58;;;;;;;16.30;9.50;;;15.50;61.30;;;;;;5058117;28;20656;-74
2022/06/25 08:13:26;;;;;;;17.67;10.43;;;15.40;61.80;;;;;;5055257;28;20186;-74
2022/06/25 08:15:54;;;;;;;20.23;11.17;;;15.30;62.20;;;;;;5055692;28;20192;-74
2022/06/25 08:18:22;;;;;;;16.77;10.07;;;15.30;62.20;;;;;;5055201;28;20268;-74
2022/06/25 08:20:50;;;;;;;11.93;7.17;;;15.20;63.30;;;;;;5055504;28;20195;-74
2022/06/25 08:23:17;;;;;;;8.53;6.10;;;15.10;62.50;;;;;;5066071;28;20185;-74
2022/06/25 08:25:45;;;;;;;8.23;5.30;;;15.00;62.70;;;;;;5055663;28;20223;-74
2022/06/25 08:28:12;;;;;;;8.07;6.03;;;15.10;61.70;;;;;;5056419;28;20255;-74
2022/06/25 08:30:42;;;;;;;8.47;6.83;;;15.20;61.80;;;;;;5061215;28;20180;-75
2022/06/25 08:33:10;;;;;;;12.13;7.70;;;15.20;61.70;;;;;;5055186;28;20184;-75
2022/06/25 08:35:38;;;;;;;13.07;8.77;;;15.20;61.90;;;;;;5055443;28;20662;-75
2022/06/25 08:38:05;;;;;;;12.60;8.43;;;15.10;62.70;;;;;;5068879;28;20266;-75
2022/06/25 08:40:33;;;;;;;11.80;9.27;;;15.10;63.00;;;;;;5058448;28;20541;-75
2022/06/25 08:43:02;;;;;;;11.97;9.63;;;15.00;63.70;;;;;;5070398;28;20222;-75
2022/06/25 08:45:29;;;;;;;14.57;9.77;;;14.90;63.70;;;;;;5063320;28;20237;-74
2022/06/25 08:48:00;;;;;;;9.50;7.53;;;14.80;64.20;;;;;;5053744;28;20183;-75
2022/06/25 08:50:28;;;;;;;11.07;7.93;;;14.80;64.70;;;;;;5055296;28;20184;-75
2022/06/25 08:52:56;;;;;;;10.20;7.00;;;14.70;64.70;;;;;;5059267;28;20756;-76
2022/06/25 08:55:34;;;;;;;9.57;6.83;;;14.60;64.90;;;;;;5062301;28;20302;-75
2022/06/25 08:58:03;;;;;;;8.37;6.07;;;14.50;65.10;;;;;;5069074;28;20168;-75
2022/06/25 09:00:33;;;;;;;10.57;6.07;;;14.50;65.50;;;;;;5067519;28;20267;-75
2022/06/25 09:03:01;;;;;;;7.90;5.83;;;14.50;65.30;;;;;;5065839;28;20175;-76
2022/06/25 09:05:34;;;;;;;7.63;5.50;;;14.40;65.40;;;;;;5073354;28;20260;-74
2022/06/25 09:08:04;;;;;;;9.73;6.30;;;14.50;64.00;;;;;;5062811;28;20218;-75
2022/06/25 09:10:31;;;;;;;11.93;6.63;;;14.50;64.70;;;;;;5057058;28;20297;-76
2022/06/25 09:13:01;;;;;;;11.27;6.30;;;14.40;65.20;;;;;;5064470;28;20321;-75
2022/06/25 09:15:34;;;;;;;10.10;6.50;;;14.30;65.30;;;;;;5057028;28;20215;-75
2022/06/25 09:18:16;;;;;;;9.30;6.37;;;14.30;66.20;;;;;;5058204;28;20175;-76
2022/06/25 09:21:07;;;;;;;12.37;7.47;;;14.20;65.90;;;;;;5070804;28;20175;-75
2022/06/25 09:23:38;;;;;;;10.37;7.90;;;14.10;67.10;;;;;;5071303;28;20688;-75
2022/06/25 09:26:11;;;;;;;10.57;7.73;;;14.00;67.90;;;;;;5057410;28;20705;-75
2022/06/25 09:28:44;;;;;;;9.93;7.40;;;13.90;68.20;;;;;;5052370;28;20279;-75
2022/06/25 09:31:11;;;;;;;11.03;7.63;;;13.90;67.40;;;;;;5053198;28;20180;-74
2022/06/25 09:33:40;;;;;;;15.33;10.23;;;14.00;66.70;;;;;;5053235;28;20257;-75
2022/06/25 09:36:12;;;;;;;33.87;20.80;;;14.00;66.10;;;;;;5066039;28;20184;-74
2022/06/25 09:38:49;;;;;;;19.37;13.40;;;14.20;65.70;;;;;;5066893;28;20199;-74
2022/06/25 09:41:17;;;;;;;13.93;7.73;;;14.20;65.30;;;;;;5059960;28;20190;-74
2022/06/25 09:43:47;;;;;;;9.87;6.73;;;14.10;65.00;;;;;;5060399;28;20175;-75
2022/06/25 09:46:15;;;;;;;9.60;6.80;;;14.20;65.30;;;;;;5067459;28;20179;-75
2022/06/25 09:48:43;;;;;;;10.03;6.67;;;14.10;65.30;;;;;;5056581;28;20233;-75
2022/06/25 09:51:16;;;;;;;10.57;7.47;;;14.00;66.30;;;;;;5053669;28;20179;-74
2022/06/25 09:53:52;;;;;;;8.40;6.23;;;13.90;66.40;;;;;;5052897;28;20646;-74
2022/06/25 09:56:32;;;;;;;9.83;6.77;;;13.80;67.50;;;;;;5053350;28;20633;-74
2022/06/25 09:59:01;;;;;;;8.67;5.87;;;13.80;67.90;;;;;;5053568;28;20176;-75
2022/06/25 10:01:33;;;;;;;11.90;6.50;;;13.80;67.80;;;;;;5054133;28;20184;-74
2022/06/25 10:04:04;;;;;;;8.73;6.50;;;13.70;68.30;;;;;;5067907;28;20183;-74
2022/06/25 10:06:36;;;;;;;9.23;6.63;;;13.80;67.80;;;;;;5055743;28;20184;-75
2022/06/25 10:09:09;;;;;;;7.17;5.57;;;13.70;68.00;;;;;;5063327;28;20201;-75
2022/06/25 10:11:37;;;;;;;10.57;5.70;;;13.60;68.00;;;;;;5061764;28;20543;-75
2022/06/25 10:14:05;;;;;;;7.37;5.77;;;13.60;68.00;;;;;;5052678;28;20283;-74
2022/06/25 10:16:33;;;;;;;8.47;5.83;;;13.60;68.20;;;;;;5061130;28;20221;-75
2022/06/25 10:19:03;;;;;;;10.13;5.80;;;13.50;68.70;;;;;;5062020;28;20175;-74
2022/06/25 10:21:31;;;;;;;8.37;5.30;;;13.50;68.70;;;;;;5056703;28;20245;-74
2022/06/25 10:24:03;;;;;;;11.50;5.83;;;13.40;68.80;;;;;;5059637;28;20230;-74
2022/06/25 10:26:31;;;;;;;9.30;6.00;;;13.50;69.10;;;;;;5052424;28;20298;-75
2022/06/25 10:29:03;;;;;;;9.93;6.53;;;13.40;69.30;;;;;;5056059;28;20182;-75
2022/06/25 10:31:31;;;;;;;10.33;6.97;;;13.30;69.80;;;;;;5060486;28;20184;-75
2022/06/25 10:34:03;;;;;;;9.53;6.47;;;13.20;70.20;;;;;;5065331;28;20218;-75
2022/06/25 10:36:52;;;;;;;8.33;5.80;;;13.20;70.20;;;;;;5058643;28;20171;-75
2022/06/25 10:39:29;;;;;;;11.47;6.30;;;13.10;70.50;;;;;;5067028;28;20179;-75
2022/06/25 10:45:05;;;;;;;12.17;8.03;;;13.00;70.90;;;;;;5058991;28;20194;-76
2022/06/25 10:47:47;;;;;;;11.00;7.50;;;13.00;71.40;;;;;;5067435;28;20187;-74
2022/06/25 10:50:25;;;;;;;10.93;7.60;;;13.00;71.60;;;;;;5056731;28;20188;-74
2022/06/25 10:53:07;;;;;;;10.27;7.33;;;13.00;71.30;;;;;;5056932;28;20168;-74
2022/06/25 10:55:57;;;;;;;13.23;8.77;;;12.90;71.40;;;;;;5053029;28;20302;-74
2022/06/25 10:58:27;;;;;;;17.87;11.43;;;12.90;71.70;;;;;;5052453;28;20172;-75
2022/06/25 11:01:01;;;;;;;16.70;11.20;;;12.80;72.20;;;;;;5052076;28;20180;-75
2022/06/25 11:03:29;;;;;;;16.87;11.07;;;12.90;72.20;;;;;;5071079;28;20182;-75
2022/06/25 11:05:59;;;;;;;15.00;10.57;;;12.80;72.00;;;;;;5055795;28;20628;-75
2022/06/25 11:08:36;;;;;;;16.00;10.87;;;12.80;72.30;;;;;;5051882;28;20203;-74
2022/06/25 11:11:05;;;;;;;14.03;9.20;;;12.80;72.20;;;;;;5052470;28;20542;-75
2022/06/25 11:13:33;;;;;;;13.83;9.10;;;12.80;72.30;;;;;;5054559;28;20211;-74
2022/06/25 11:16:11;;;;;;;13.10;8.87;;;12.70;72.80;;;;;;5063710;28;20625;-74
2022/06/25 11:18:47;;;;;;;14.33;9.50;;;12.70;73.10;;;;;;5068985;28;20229;-75
2022/06/25 11:21:40;;;;;;;15.33;8.60;;;12.70;73.40;;;;;;5057544;28;20226;-74
2022/06/25 11:24:27;;;;;;;11.10;8.00;;;12.70;73.80;;;;;;5060542;28;20175;-73
2022/06/25 11:29:53;;;;;;;16.13;9.00;;;12.70;74.50;;;;;;5053775;28;20670;-75
2022/06/25 11:32:22;;;;;;;15.13;8.43;;;12.60;74.60;;;;;;5066058;28;20198;-75
2022/06/25 11:35:00;;;;;;;16.03;9.17;;;12.50;75.00;;;;;;5066720;28;20203;-75
2022/06/25 11:37:30;;;;;;;13.10;8.27;;;12.50;75.00;;;;;;5081323;28;20704;-74
2022/06/25 11:39:58;;;;;;;16.50;9.53;;;12.40;75.50;;;;;;5065658;28;20186;-74
2022/06/25 11:42:25;;;;;;;11.40;8.17;;;12.40;75.70;;;;;;5064283;28;20187;-74
2022/06/25 11:44:55;;;;;;;14.93;7.97;;;12.40;76.40;;;;;;5051908;28;20187;-75
2022/06/25 11:47:25;;;;;;;12.93;8.13;;;12.40;76.10;;;;;;5067368;28;20642;-74
2022/06/25 11:49:53;;;;;;;14.17;8.57;;;12.30;76.40;;;;;;5051147;28;20804;-73
2022/06/25 11:52:25;;;;;;;13.70;7.97;;;12.30;76.40;;;;;;5061536;28;20191;-74
2022/06/25 11:54:54;;;;;;;14.73;8.60;;;12.20;76.80;;;;;;5068545;28;20265;-73
2022/06/25 11:57:27;;;;;;;15.47;9.53;;;12.20;77.40;;;;;;5071356;28;20204;-73
2022/06/25 11:59:56;;;;;;;13.60;9.83;;;12.10;77.40;;;;;;5070866;28;20188;-73
2022/06/25 12:02:24;;;;;;;18.27;12.47;;;12.20;77.40;;;;;;5062970;28;20184;-73
2022/06/25 12:05:11;;;;;;;19.67;12.73;;;12.00;77.80;;;;;;5059408;28;20179;-75
2022/06/25 12:07:44;;;;;;;17.07;11.17;;;12.10;77.70;;;;;;5052848;28;20188;-75
2022/06/25 12:10:13;;;;;;;16.33;11.20;;;12.00;77.90;;;;;;5059938;28;20188;-74
2022/06/25 12:12:41;;;;;;;15.77;10.57;;;12.10;77.70;;;;;;5069726;28;20184;-74
2022/06/25 12:15:11;;;;;;;15.43;9.53;;;12.00;77.90;;;;;;5055033;28;20216;-75
2022/06/25 12:17:40;;;;;;;16.03;9.40;;;12.00;77.70;;;;;;5071486;28;20175;-74
2022/06/25 12:20:09;;;;;;;14.70;9.27;;;12.00;77.40;;;;;;5064474;28;20174;-74
2022/06/25 12:22:47;;;;;;;14.07;9.13;;;12.00;77.40;;;;;;5067020;28;20626;-74
2022/06/25 12:25:24;;;;;;;13.10;9.80;;;12.00;77.30;;;;;;5063212;28;20237;-74
2022/06/25 12:27:52;;;;;;;19.30;10.43;;;12.00;77.30;;;;;;5057301;28;20192;-74
2022/06/25 12:30:28;;;;;;;15.43;11.40;;;12.00;77.10;;;;;;5054929;28;20211;-74
2022/06/25 12:33:03;;;;;;;19.00;12.47;;;11.90;77.20;;;;;;5055661;28;20181;-74
2022/06/25 12:35:33;;;;;;;15.30;11.27;;;11.90;77.40;;;;;;5064449;28;20222;-75
2022/06/25 12:38:15;;;;;;;15.57;10.30;;;11.90;77.40;;;;;;5067329;28;20211;-75
2022/06/25 12:40:45;;;;;;;15.67;10.87;;;11.90;77.30;;;;;;5054584;28;20206;-75
2022/06/25 12:43:14;;;;;;;15.37;11.10;;;11.90;77.30;;;;;;5053944;28;20207;-74
2022/06/25 12:45:47;;;;;;;14.97;10.30;;;11.80;77.10;;;;;;5059266;28;20172;-74
2022/06/25 12:48:26;;;;;;;17.77;10.97;;;11.80;77.40;;;;;;5066364;28;20558;-74
2022/06/25 12:50:54;;;;;;;15.80;10.97;;;11.70;77.30;;;;;;5054738;28;20187;-74
2022/06/25 12:53:22;;;;;;;22.33;12.23;;;11.60;77.90;;;;;;5064107;28;20248;-74
2022/06/25 12:55:50;;;;;;;16.07;10.80;;;11.60;78.10;;;;;;5054344;28;20696;-74
2022/06/25 12:58:18;;;;;;;17.63;10.30;;;11.50;78.10;;;;;;5054617;28;20642;-74
2022/06/25 13:00:46;;;;;;;15.37;10.43;;;11.50;78.60;;;;;;5054722;28;20188;-74
2022/06/25 13:03:14;;;;;;;14.97;10.77;;;11.40;78.90;;;;;;5054532;28;20183;-74
2022/06/25 13:05:41;;;;;;;16.13;10.93;;;11.50;79.00;;;;;;5054988;28;20208;-74
2022/06/25 13:08:09;;;;;;;14.50;11.27;;;11.50;79.10;;;;;;5054571;28;20188;-76
2022/06/25 13:10:37;;;;;;;15.80;10.13;;;11.50;79.00;;;;;;5054511;28;20179;-75